Time;durP1;ratioP1;P1;durP2;ratioP2;P2;SDS_P1;SDS_P2;PMS_P1;PMS_P2;Temp;Humidity;BMP_temperature;BMP_pressure;BME280_temperature;BME280_humidity;BME280_pressure;Samples;Min_cycle;Max_cycle;Signal;HPM_P1;HPM_P2
2023/03/08 00:00:21;;;;;;;;;;;;;;;;;;1870549;28;7085;-64
2023/03/08 00:01:23;;;;;;;;;;;;;;;;;;1871467;28;7059;-64
2023/03/08 00:02:21;;;;;;;;;;;;;;;;;;1868189;28;8083;-64
2023/03/08 00:03:18;;;;;;;;;;;;;;;;;;1868208;29;7010;-64
2023/03/08 00:04:15;;;;;;;;;;;;;;;;;;1868511;29;7042;-64
2023/03/08 00:05:13;;;;;;;;;;;;;;;;;;1873531;28;7002;-64
2023/03/08 00:06:12;;;;;;;;;;;;;;;;;;1875450;28;7151;-64
2023/03/08 00:07:10;;;;;;;;;;;;;;;;;;1875666;28;7010;-64
2023/03/08 00:08:07;;;;;;;;;;;;;;;;;;1875580;28;7117;-64
2023/03/08 00:09:05;;;;;;;;;;;;;;;;;;1873437;28;8986;-64
2023/03/08 00:10:03;;;;;;;;;;;;;;;;;;1871866;28;7108;-64
2023/03/08 00:11:03;;;;;;;;;;;;;;;;;;1871132;28;7042;-64
2023/03/08 00:12:00;;;;;;;;;;;;;;;;;;1870877;28;7415;-64
2023/03/08 00:12:58;;;;;;;;;;;;;;;;;;1872631;28;7376;-64
2023/03/08 00:13:56;;;;;;;;;;;;;;;;;;1868602;28;8044;-63
2023/03/08 00:14:53;;;;;;;;;;;;;;;;;;1868802;29;7096;-64
2023/03/08 00:15:51;;;;;;;;;;;;;;;;;;1872139;28;7120;-64
2023/03/08 00:16:49;;;;;;;;;;;;;;;;;;1873108;28;7046;-64
2023/03/08 00:17:46;;;;;;;;;;;;;;;;;;1870842;28;7042;-64
2023/03/08 00:18:44;;;;;;;;;;;;;;;;;;1871270;28;7050;-64
2023/03/08 00:19:41;;;;;;;;;;;;;;;;;;1875693;28;7117;-64
2023/03/08 00:20:38;;;;;;;;;;;;;;;;;;1874381;28;7069;-64
2023/03/08 00:21:36;;;;;;;;;;;;;;;;;;1871529;28;7998;-64
2023/03/08 00:22:40;;;;;;;;;;;;;;;;;;1871032;28;7006;-64
2023/03/08 00:23:38;;;;;;;;;;;;;;;;;;1876121;28;7950;-64
2023/03/08 00:24:36;;;;;;;;;;;;;;;;;;1875326;28;7152;-64
2023/03/08 00:25:33;;;;;;;;;;;;;;;;;;1875555;28;7026;-64
2023/03/08 00:26:30;;;;;;;;;;;;;;;;;;1875397;28;7010;-64
2023/03/08 00:27:28;;;;;;;;;;;;;;;;;;1875223;28;8037;-64
2023/03/08 00:28:26;;;;;;;;;;;;;;;;;;1875862;28;7061;-63
2023/03/08 00:29:23;;;;;;;;;;;;;;;;;;1875971;28;7470;-64
2023/03/08 00:30:20;;;;;;;;;;;;;;;;;;1875105;28;7169;-64
2023/03/08 00:31:18;;;;;;;;;;;;;;;;;;1875415;28;8028;-64
2023/03/08 00:32:16;;;;;;;;;;;;;;;;;;1875360;28;8059;-65
2023/03/08 00:33:32;;;;;;;;;;;;;;;;;;1875516;28;8118;-64
2023/03/08 00:34:29;;;;;;;;;;;;;;;;;;1875629;28;8059;-64
2023/03/08 00:35:26;;;;;;;;;;;;;;;;;;1874983;28;7241;-64
2023/03/08 00:36:24;;;;;;;;;;;;;;;;;;1875602;28;7010;-64
2023/03/08 00:37:40;;;;;;;;;;;;;;;;;;1876155;28;7097;-64
2023/03/08 00:38:37;;;;;;;;;;;;;;;;;;1874622;28;7077;-64
2023/03/08 00:39:53;;;;;;;;;;;;;;;;;;1875932;28;7114;-64
2023/03/08 00:40:51;;;;;;;;;;;;;;;;;;1875521;28;7085;-64
2023/03/08 00:43:04;;;;;;;;;;;;;;;;;;1876002;28;7010;-65
2023/03/08 00:44:19;;;;;;;;;;;;;;;;;;1875998;28;7005;-64
2023/03/08 00:46:49;;;;;;;;;;;;;;;;;;1875137;28;7125;-64
2023/03/08 00:47:47;;;;;;;;;;;;;;;;;;1875553;28;7145;-64
2023/03/08 00:49:21;;;;;;;;;;;;;;;;;;1875812;28;7002;-64
2023/03/08 00:50:36;;;;;;;;;;;;;;;;;;1875844;28;8018;-64
2023/03/08 00:51:33;;;;;;;;;;;;;;;;;;1867072;29;7161;-64
2023/03/08 00:52:30;;;;;;;;;;;;;;;;;;1867344;29;8048;-64
2023/03/08 00:53:28;;;;;;;;;;;;;;;;;;1873748;28;8006;-64
2023/03/08 00:54:25;;;;;;;;;;;;;;;;;;1875418;28;8107;-64
2023/03/08 00:55:22;;;;;;;;;;;;;;;;;;1875071;28;7345;-64
2023/03/08 00:56:20;;;;;;;;;;;;;;;;;;1875062;28;7301;-63
2023/03/08 00:57:18;;;;;;;;;;;;;;;;;;1875522;28;7168;-64
2023/03/08 00:58:15;;;;;;;;;;;;;;;;;;1867357;29;7124;-64
2023/03/08 00:59:12;;;;;;;;;;;;;;;;;;1867409;29;7237;-64
2023/03/08 01:00:11;;;;;;;;;;;;;;;;;;1874384;28;7088;-64
2023/03/08 01:01:12;;;;;;;;;;;;;;;;;;1875078;28;8457;-64
2023/03/08 01:02:10;;;;;;;;;;;;;;;;;;1872573;28;7278;-64
2023/03/08 01:03:07;;;;;;;;;;;;;;;;;;1875903;28;7006;-64
2023/03/08 01:04:05;;;;;;;;;;;;;;;;;;1875842;28;8194;-64
2023/03/08 01:05:02;;;;;;;;;;;;;;;;;;1875712;28;7314;-64
2023/03/08 01:06:05;;;;;;;;;;;;;;;;;;1873395;28;7133;-64
2023/03/08 01:07:02;;;;;;;;;;;;;;;;;;1875401;28;7377;-64
2023/03/08 01:08:02;;;;;;;;;;;;;;;;;;1875234;28;7002;-64
2023/03/08 01:08:59;;;;;;;;;;;;;;;;;;1875063;28;8084;-63
2023/03/08 01:09:57;;;;;;;;;;;;;;;;;;1875506;28;7428;-64
2023/03/08 01:10:57;;;;;;;;;;;;;;;;;;1873095;28;7002;-64
2023/03/08 01:11:54;;;;;;;;;;;;;;;;;;1867874;29;7129;-64
2023/03/08 01:12:51;;;;;;;;;;;;;;;;;;1867626;29;7036;-64
2023/03/08 01:13:50;;;;;;;;;;;;;;;;;;1873841;28;7006;-63
2023/03/08 01:14:47;;;;;;;;;;;;;;;;;;1875579;28;7093;-64
2023/03/08 01:15:45;;;;;;;;;;;;;;;;;;1875152;28;7121;-64
2023/03/08 01:16:42;;;;;;;;;;;;;;;;;;1875238;28;8185;-64
2023/03/08 01:17:40;;;;;;;;;;;;;;;;;;1875266;28;8000;-64
2023/03/08 01:18:37;;;;;;;;;;;;;;;;;;1875671;28;7325;-64
2023/03/08 01:19:35;;;;;;;;;;;;;;;;;;1875151;28;7200;-64
2023/03/08 01:20:32;;;;;;;;;;;;;;;;;;1867351;29;8531;-64
2023/03/08 01:21:30;;;;;;;;;;;;;;;;;;1867177;29;7130;-64
2023/03/08 01:22:28;;;;;;;;;;;;;;;;;;1873744;28;7009;-64
2023/03/08 01:23:25;;;;;;;;;;;;;;;;;;1875074;28;8062;-64
2023/03/08 01:24:22;;;;;;;;;;;;;;;;;;1875170;28;7014;-64
2023/03/08 01:25:20;;;;;;;;;;;;;;;;;;1875709;28;8005;-64
2023/03/08 01:26:19;;;;;;;;;;;;;;;;;;1875060;28;7117;-64
2023/03/08 01:27:16;;;;;;;;;;;;;;;;;;1874973;28;8318;-64
2023/03/08 01:28:14;;;;;;;;;;;;;;;;;;1874748;28;7042;-64
2023/03/08 01:29:11;;;;;;;;;;;;;;;;;;1875030;28;7073;-64
2023/03/08 01:30:08;;;;;;;;;;;;;;;;;;1875242;28;7006;-64
2023/03/08 01:31:08;;;;;;;;;;;;;;;;;;1874679;28;7023;-64
2023/03/08 01:32:05;;;;;;;;;;;;;;;;;;1875377;28;7034;-64
2023/03/08 01:33:02;;;;;;;;;;;;;;;;;;1874915;28;7078;-64
2023/03/08 01:34:00;;;;;;;;;;;;;;;;;;1874769;28;7126;-64
2023/03/08 01:35:02;;;;;;;;;;;;;;;;;;1874966;28;7018;-64
2023/03/08 01:36:02;;;;;;;;;;;;;;;;;;1874698;28;7101;-64
2023/03/08 01:36:59;;;;;;;;;;;;;;;;;;1874781;28;7054;-64
2023/03/08 01:37:57;;;;;;;;;;;;;;;;;;1874022;28;7984;-64
2023/03/08 01:38:55;;;;;;;;;;;;;;;;;;1874475;28;7274;-64
2023/03/08 01:39:52;;;;;;;;;;;;;;;;;;1875133;28;7132;-64
2023/03/08 01:40:54;;;;;;;;;;;;;;;;;;1874108;28;7042;-64
2023/03/08 01:41:51;;;;;;;;;;;;;;;;;;1874826;28;7126;-64
2023/03/08 01:42:48;;;;;;;;;;;;;;;;;;1874781;28;8005;-64
2023/03/08 01:43:46;;;;;;;;;;;;;;;;;;1874613;28;7054;-64
2023/03/08 01:44:48;;;;;;;;;;;;;;;;;;1875408;28;7133;-64
2023/03/08 01:45:57;;;;;;;;;;;;;;;;;;1875464;28;7395;-64
2023/03/08 01:46:55;;;;;;;;;;;;;;;;;;1875605;28;8028;-64
2023/03/08 01:47:52;;;;;;;;;;;;;;;;;;1873417;28;7010;-64
2023/03/08 01:48:53;;;;;;;;;;;;;;;;;;1875281;28;7038;-64
2023/03/08 01:49:53;;;;;;;;;;;;;;;;;;1875078;28;7046;-64
2023/03/08 01:50:51;;;;;;;;;;;;;;;;;;1874595;28;7108;-64
2023/03/08 01:51:48;;;;;;;;;;;;;;;;;;1874792;28;7341;-64
2023/03/08 01:52:51;;;;;;;;;;;;;;;;;;1875193;28;7214;-64
2023/03/08 01:53:48;;;;;;;;;;;;;;;;;;1874637;28;8084;-63
2023/03/08 01:54:48;;;;;;;;;;;;;;;;;;1874314;28;7428;-63
2023/03/08 01:55:45;;;;;;;;;;;;;;;;;;1873803;28;7310;-64
2023/03/08 01:56:46;;;;;;;;;;;;;;;;;;1874805;28;7129;-64
2023/03/08 01:57:52;;;;;;;;;;;;;;;;;;1875235;28;7006;-64
2023/03/08 01:58:50;;;;;;;;;;;;;;;;;;1875672;28;7325;-64
2023/03/08 01:59:49;;;;;;;;;;;;;;;;;;1874142;28;7089;-64
2023/03/08 02:00:47;;;;;;;;;;;;;;;;;;1875128;28;7097;-64
2023/03/08 02:01:44;;;;;;;;;;;;;;;;;;1874546;28;7211;-64
2023/03/08 02:02:51;;;;;;;;;;;;;;;;;;1875107;28;7002;-64
2023/03/08 02:03:48;;;;;;;;;;;;;;;;;;1874615;28;7089;-64
2023/03/08 02:04:46;;;;;;;;;;;;;;;;;;1873713;28;7105;-64
2023/03/08 02:05:43;;;;;;;;;;;;;;;;;;1873971;28;7980;-64
2023/03/08 02:06:42;;;;;;;;;;;;;;;;;;1875087;28;7101;-64
2023/03/08 02:07:40;;;;;;;;;;;;;;;;;;1875219;28;7141;-64
2023/03/08 02:08:37;;;;;;;;;;;;;;;;;;1874874;28;7329;-64
2023/03/08 02:09:35;;;;;;;;;;;;;;;;;;1874617;28;7010;-64
2023/03/08 02:10:35;;;;;;;;;;;;;;;;;;1874426;28;7207;-64
2023/03/08 02:11:34;;;;;;;;;;;;;;;;;;1874580;28;7073;-64
2023/03/08 02:12:33;;;;;;;;;;;;;;;;;;1874801;28;7243;-64
2023/03/08 02:13:30;;;;;;;;;;;;;;;;;;1875065;28;7100;-63
2023/03/08 02:14:27;;;;;;;;;;;;;;;;;;1875500;28;8213;-64
2023/03/08 02:15:25;;;;;;;;;;;;;;;;;;1875255;28;7071;-64
2023/03/08 02:16:22;;;;;;;;;;;;;;;;;;1874281;28;7984;-64
2023/03/08 02:17:21;;;;;;;;;;;;;;;;;;1874779;28;7117;-64
2023/03/08 02:18:18;;;;;;;;;;;;;;;;;;1873495;28;8021;-64
2023/03/08 02:19:21;;;;;;;;;;;;;;;;;;1874436;28;9325;-64
2023/03/08 02:20:24;;;;;;;;;;;;;;;;;;1874901;28;7014;-64
2023/03/08 02:21:22;;;;;;;;;;;;;;;;;;1875149;28;8841;-64
2023/03/08 02:22:20;;;;;;;;;;;;;;;;;;1866441;29;7006;-64
2023/03/08 02:23:21;;;;;;;;;;;;;;;;;;1866640;29;7129;-64
2023/03/08 02:24:22;;;;;;;;;;;;;;;;;;1874787;28;7193;-64
2023/03/08 02:25:19;;;;;;;;;;;;;;;;;;1874542;28;7089;-64
2023/03/08 02:26:16;;;;;;;;;;;;;;;;;;1874619;28;7137;-64
2023/03/08 02:27:19;;;;;;;;;;;;;;;;;;1875054;28;7006;-64
2023/03/08 02:28:17;;;;;;;;;;;;;;;;;;1874568;28;8021;-64
2023/03/08 02:29:15;;;;;;;;;;;;;;;;;;1874807;28;8022;-64
2023/03/08 02:30:14;;;;;;;;;;;;;;;;;;1874941;28;7010;-64
2023/03/08 02:31:12;;;;;;;;;;;;;;;;;;1875318;28;7128;-64
2023/03/08 02:32:09;;;;;;;;;;;;;;;;;;1873566;28;8475;-64
2023/03/08 02:33:07;;;;;;;;;;;;;;;;;;1874913;28;7313;-64
2023/03/08 02:34:22;;;;;;;;;;;;;;;;;;1874507;28;7076;-64
2023/03/08 02:35:20;;;;;;;;;;;;;;;;;;1873299;28;7038;-64
2023/03/08 02:36:54;;;;;;;;;;;;;;;;;;1867472;29;7113;-64
2023/03/08 02:37:51;;;;;;;;;;;;;;;;;;1870976;28;7006;-64
2023/03/08 02:38:49;;;;;;;;;;;;;;;;;;1874869;28;7014;-64
2023/03/08 02:41:20;;;;;;;;;;;;;;;;;;1874479;28;7367;-64
2023/03/08 02:42:18;;;;;;;;;;;;;;;;;;1873575;28;7035;-64
2023/03/08 02:43:33;;;;;;;;;;;;;;;;;;1874987;28;7006;-64
2023/03/08 02:44:49;;;;;;;;;;;;;;;;;;1874938;28;7006;-64
2023/03/08 02:47:57;;;;;;;;;;;;;;;;;;1874488;28;7052;-66
2023/03/08 02:48:55;;;;;;;;;;;;;;;;;;1874641;28;8027;-64
2023/03/08 02:49:52;;;;;;;;;;;;;;;;;;1874662;28;7010;-66
2023/03/08 02:50:49;;;;;;;;;;;;;;;;;;1874489;28;7010;-66
2023/03/08 02:53:39;;;;;;;;;;;;;;;;;;1874147;28;7081;-66
2023/03/08 02:54:55;;;;;;;;;;;;;;;;;;1874406;28;8025;-66
2023/03/08 02:56:10;;;;;;;;;;;;;;;;;;1874736;28;7108;-65
2023/03/08 02:57:25;;;;;;;;;;;;;;;;;;1875145;28;7037;-65
2023/03/08 02:58:22;;;;;;;;;;;;;;;;;;1874307;28;8016;-65
2023/03/08 02:59:20;;;;;;;;;;;;;;;;;;1874831;28;7005;-65
2023/03/08 03:00:20;;;;;;;;;;;;;;;;;;1874928;28;8113;-66
2023/03/08 03:01:17;;;;;;;;;;;;;;;;;;1874633;28;7384;-65
2023/03/08 03:02:33;;;;;;;;;;;;;;;;;;1875015;28;7109;-65
2023/03/08 03:03:30;;;;;;;;;;;;;;;;;;1874371;28;7121;-66
2023/03/08 03:04:29;;;;;;;;;;;;;;;;;;1874151;28;7006;-66
2023/03/08 03:05:26;;;;;;;;;;;;;;;;;;1875157;28;7006;-65
2023/03/08 03:06:24;;;;;;;;;;;;;;;;;;1874541;28;7006;-65
2023/03/08 03:07:21;;;;;;;;;;;;;;;;;;1874197;28;7997;-65
2023/03/08 03:08:18;;;;;;;;;;;;;;;;;;1874369;28;7006;-65
2023/03/08 03:09:16;;;;;;;;;;;;;;;;;;1874701;28;7136;-65
2023/03/08 03:10:13;;;;;;;;;;;;;;;;;;1874114;28;7089;-66
2023/03/08 03:11:15;;;;;;;;;;;;;;;;;;1874586;29;7044;-66
2023/03/08 03:12:16;;;;;;;;;;;;;;;;;;1874200;29;7313;-66
2023/03/08 03:13:14;;;;;;;;;;;;;;;;;;1874223;29;7089;-65
2023/03/08 03:14:11;;;;;;;;;;;;;;;;;;1874533;29;8021;-65
2023/03/08 03:15:10;;;;;;;;;;;;;;;;;;1874473;29;7010;-65
2023/03/08 03:16:09;;;;;;;;;;;;;;;;;;1874531;29;7006;-66
2023/03/08 03:17:06;;;;;;;;;;;;;;;;;;1874755;29;7042;-66
2023/03/08 03:18:22;;;;;;;;;;;;;;;;;;1874816;29;7002;-65
2023/03/08 03:19:56;;;;;;;;;;;;;;;;;;1874702;29;7133;-66
2023/03/08 03:20:53;;;;;;;;;;;;;;;;;;1873345;29;7151;-66
2023/03/08 03:21:51;;;;;;;;;;;;;;;;;;1874473;29;7031;-65
2023/03/08 03:23:07;;;;;;;;;;;;;;;;;;1875271;29;7010;-65
2023/03/08 03:24:40;;;;;;;;;;;;;;;;;;1874803;29;7077;-65
2023/03/08 03:25:38;;;;;;;;;;;;;;;;;;1874344;29;8028;-65
2023/03/08 03:26:35;;;;;;;;;;;;;;;;;;1874353;29;9056;-65
2023/03/08 03:27:32;;;;;;;;;;;;;;;;;;1874331;29;7041;-63
2023/03/08 03:28:30;;;;;;;;;;;;;;;;;;1862313;29;7078;-66
2023/03/08 03:29:27;;;;;;;;;;;;;;;;;;1865570;29;7477;-66
2023/03/08 03:30:24;;;;;;;;;;;;;;;;;;1873398;29;7311;-65
2023/03/08 03:31:22;;;;;;;;;;;;;;;;;;1873935;29;7133;-65
2023/03/08 03:32:20;;;;;;;;;;;;;;;;;;1874804;29;7108;-63
2023/03/08 03:33:17;;;;;;;;;;;;;;;;;;1872834;28;7070;-65
2023/03/08 03:34:14;;;;;;;;;;;;;;;;;;1874690;28;7050;-65
2023/03/08 03:35:12;;;;;;;;;;;;;;;;;;1876201;28;7101;-64
2023/03/08 03:36:11;;;;;;;;;;;;;;;;;;1876388;28;7136;-64
2023/03/08 03:37:08;;;;;;;;;;;;;;;;;;1875157;28;7379;-65
2023/03/08 03:38:06;;;;;;;;;;;;;;;;;;1875934;28;7046;-65
2023/03/08 03:39:03;;;;;;;;;;;;;;;;;;1875634;28;7137;-65
2023/03/08 03:40:01;;;;;;;;;;;;;;;;;;1876320;28;7159;-65
2023/03/08 03:40:59;;;;;;;;;;;;;;;;;;1874348;28;7999;-64
2023/03/08 03:41:56;;;;;;;;;;;;;;;;;;1876018;28;7329;-65
2023/03/08 03:42:54;;;;;;;;;;;;;;;;;;1875791;28;8085;-65
2023/03/08 03:43:51;;;;;;;;;;;;;;;;;;1876300;28;7129;-65
2023/03/08 03:44:48;;;;;;;;;;;;;;;;;;1875755;28;7093;-65
2023/03/08 03:45:53;;;;;;;;;;;;;;;;;;1876138;28;8096;-65
2023/03/08 03:46:50;;;;;;;;;;;;;;;;;;1875661;28;7010;-65
2023/03/08 03:47:48;;;;;;;;;;;;;;;;;;1867969;29;7855;-65
2023/03/08 03:48:46;;;;;;;;;;;;;;;;;;1867890;29;8010;-65
2023/03/08 03:49:43;;;;;;;;;;;;;;;;;;1874725;28;7006;-65
2023/03/08 03:50:41;;;;;;;;;;;;;;;;;;1875491;28;7022;-65
2023/03/08 03:51:38;;;;;;;;;;;;;;;;;;1876238;28;8120;-65
2023/03/08 03:52:35;;;;;;;;;;;;;;;;;;1875764;28;8010;-65
2023/03/08 03:53:33;;;;;;;;;;;;;;;;;;1875686;28;7097;-65
2023/03/08 03:54:31;;;;;;;;;;;;;;;;;;1875827;28;7009;-65
2023/03/08 03:55:28;;;;;;;;;;;;;;;;;;1876164;28;7029;-65
2023/03/08 03:56:26;;;;;;;;;;;;;;;;;;1875321;28;7082;-65
2023/03/08 03:57:24;;;;;;;;;;;;;;;;;;1875981;28;7010;-65
2023/03/08 03:58:21;;;;;;;;;;;;;;;;;;1876183;28;7005;-65
2023/03/08 03:59:18;;;;;;;;;;;;;;;;;;1875967;28;7122;-65
2023/03/08 04:00:16;;;;;;;;;;;;;;;;;;1875296;28;7415;-65
2023/03/08 04:01:15;;;;;;;;;;;;;;;;;;1874507;28;8025;-65
2023/03/08 04:02:13;;;;;;;;;;;;;;;;;;1873987;28;7051;-65
2023/03/08 04:03:10;;;;;;;;;;;;;;;;;;1874654;28;7077;-65
2023/03/08 04:04:09;;;;;;;;;;;;;;;;;;1868141;29;7014;-65
2023/03/08 04:05:06;;;;;;;;;;;;;;;;;;1868270;29;7145;-65
2023/03/08 04:06:04;;;;;;;;;;;;;;;;;;1874190;28;7010;-65
2023/03/08 04:07:02;;;;;;;;;;;;;;;;;;1875550;28;7006;-65
2023/03/08 04:07:59;;;;;;;;;;;;;;;;;;1874948;28;8335;-65
2023/03/08 04:08:58;;;;;;;;;;;;;;;;;;1874204;28;7006;-64
2023/03/08 04:09:56;;;;;;;;;;;;;;;;;;1874334;28;7006;-65
2023/03/08 04:10:58;;;;;;;;;;;;;;;;;;1875450;28;7133;-65
2023/03/08 04:11:55;;;;;;;;;;;;;;;;;;1875944;28;8211;-65
2023/03/08 04:12:53;;;;;;;;;;;;;;;;;;1875985;28;8028;-65
2023/03/08 04:13:50;;;;;;;;;;;;;;;;;;1875495;28;7389;-65
2023/03/08 04:14:48;;;;;;;;;;;;;;;;;;1875202;28;7104;-64
2023/03/08 04:15:45;;;;;;;;;;;;;;;;;;1875504;28;7014;-65
2023/03/08 04:16:42;;;;;;;;;;;;;;;;;;1875623;28;7006;-65
2023/03/08 04:17:40;;;;;;;;;;;;;;;;;;1875158;28;7014;-65
2023/03/08 04:18:37;;;;;;;;;;;;;;;;;;1875977;28;7010;-65
2023/03/08 04:19:35;;;;;;;;;;;;;;;;;;1875735;28;7070;-65
2023/03/08 04:20:32;;;;;;;;;;;;;;;;;;1875627;28;8222;-65
2023/03/08 04:21:29;;;;;;;;;;;;;;;;;;1875641;28;7097;-65
2023/03/08 04:22:27;;;;;;;;;;;;;;;;;;1867716;29;8051;-65
2023/03/08 04:23:24;;;;;;;;;;;;;;;;;;1867867;29;7058;-65
2023/03/08 04:24:21;;;;;;;;;;;;;;;;;;1874471;28;7010;-65
2023/03/08 04:25:20;;;;;;;;;;;;;;;;;;1875445;28;7097;-65
2023/03/08 04:26:17;;;;;;;;;;;;;;;;;;1875833;28;7122;-65
2023/03/08 04:27:15;;;;;;;;;;;;;;;;;;1875916;28;7005;-65
2023/03/08 04:28:12;;;;;;;;;;;;;;;;;;1876153;28;9724;-65
2023/03/08 04:29:10;;;;;;;;;;;;;;;;;;1875717;28;7138;-65
2023/03/08 04:30:07;;;;;;;;;;;;;;;;;;1875495;28;7212;-65
2023/03/08 04:31:15;;;;;;;;;;;;;;;;;;1875751;28;7109;-65
2023/03/08 04:32:13;;;;;;;;;;;;;;;;;;1875357;28;7092;-65
2023/03/08 04:33:10;;;;;;;;;;;;;;;;;;1876040;28;8075;-65
2023/03/08 04:34:08;;;;;;;;;;;;;;;;;;1876386;28;7201;-65
2023/03/08 04:35:05;;;;;;;;;;;;;;;;;;1875415;28;7014;-65
2023/03/08 04:36:03;;;;;;;;;;;;;;;;;;1875291;28;8247;-65
2023/03/08 04:37:00;;;;;;;;;;;;;;;;;;1875894;28;8044;-65
2023/03/08 04:37:57;;;;;;;;;;;;;;;;;;1875622;28;7005;-65
2023/03/08 04:38:55;;;;;;;;;;;;;;;;;;1875870;28;7010;-65
2023/03/08 04:39:52;;;;;;;;;;;;;;;;;;1875897;28;7014;-65
2023/03/08 04:41:10;;;;;;;;;;;;;;;;;;1875877;28;8120;-65
2023/03/08 04:42:08;;;;;;;;;;;;;;;;;;1875990;28;7010;-65
2023/03/08 04:43:05;;;;;;;;;;;;;;;;;;1875997;28;8008;-65
2023/03/08 04:44:03;;;;;;;;;;;;;;;;;;1874984;28;7014;-65
2023/03/08 04:45:00;;;;;;;;;;;;;;;;;;1874981;28;8007;-66
2023/03/08 04:45:58;;;;;;;;;;;;;;;;;;1875638;28;7110;-65
2023/03/08 04:46:58;;;;;;;;;;;;;;;;;;1875919;28;8013;-65
2023/03/08 04:47:56;;;;;;;;;;;;;;;;;;1876088;28;7137;-65
2023/03/08 04:48:54;;;;;;;;;;;;;;;;;;1875829;28;8078;-65
2023/03/08 04:49:52;;;;;;;;;;;;;;;;;;1876173;28;7073;-65
2023/03/08 04:50:53;;;;;;;;;;;;;;;;;;1875681;28;7352;-65
2023/03/08 04:51:50;;;;;;;;;;;;;;;;;;1875740;28;8051;-65
2023/03/08 04:52:47;;;;;;;;;;;;;;;;;;1874420;28;7010;-65
2023/03/08 04:53:45;;;;;;;;;;;;;;;;;;1874901;28;7070;-65
2023/03/08 04:54:42;;;;;;;;;;;;;;;;;;1876232;28;8008;-65
2023/03/08 04:55:40;;;;;;;;;;;;;;;;;;1875673;28;7133;-65
2023/03/08 04:56:37;;;;;;;;;;;;;;;;;;1875420;28;7134;-65
2023/03/08 04:57:34;;;;;;;;;;;;;;;;;;1876376;28;7414;-65
2023/03/08 04:58:32;;;;;;;;;;;;;;;;;;1875992;28;7213;-65
2023/03/08 04:59:30;;;;;;;;;;;;;;;;;;1875068;28;7010;-65
2023/03/08 05:00:27;;;;;;;;;;;;;;;;;;1875927;28;8043;-65
2023/03/08 05:01:24;;;;;;;;;;;;;;;;;;1875807;28;7006;-65
2023/03/08 05:02:22;;;;;;;;;;;;;;;;;;1873666;28;8148;-65
2023/03/08 05:03:20;;;;;;;;;;;;;;;;;;1875359;28;7010;-65
2023/03/08 05:04:17;;;;;;;;;;;;;;;;;;1875852;28;7192;-65
2023/03/08 05:05:15;;;;;;;;;;;;;;;;;;1875774;28;7120;-65
2023/03/08 05:06:15;;;;;;;;;;;;;;;;;;1875986;28;7081;-65
2023/03/08 05:07:12;;;;;;;;;;;;;;;;;;1875669;28;8020;-65
2023/03/08 05:08:09;;;;;;;;;;;;;;;;;;1875638;28;8029;-64
2023/03/08 05:09:07;;;;;;;;;;;;;;;;;;1875292;28;8039;-65
2023/03/08 05:10:04;;;;;;;;;;;;;;;;;;1875424;28;7363;-66
2023/03/08 05:11:03;;;;;;;;;;;;;;;;;;1876154;28;8036;-65
2023/03/08 05:12:00;;;;;;;;;;;;;;;;;;1876011;28;7116;-65
2023/03/08 05:12:58;;;;;;;;;;;;;;;;;;1875670;28;7101;-65
2023/03/08 05:13:58;;;;;;;;;;;;;;;;;;1875383;28;7139;-65
2023/03/08 05:14:56;;;;;;;;;;;;;;;;;;1875356;28;7907;-65
2023/03/08 05:15:53;;;;;;;;;;;;;;;;;;1875436;28;7372;-65
2023/03/08 05:16:53;;;;;;;;;;;;;;;;;;1875134;28;7121;-65
2023/03/08 05:17:50;;;;;;;;;;;;;;;;;;1875749;28;8026;-65
2023/03/08 05:18:48;;;;;;;;;;;;;;;;;;1875875;28;7203;-65
2023/03/08 05:19:45;;;;;;;;;;;;;;;;;;1875362;28;7087;-65
2023/03/08 05:20:43;;;;;;;;;;;;;;;;;;1875385;28;7142;-65
2023/03/08 05:21:40;;;;;;;;;;;;;;;;;;1875199;28;7002;-65
2023/03/08 05:22:38;;;;;;;;;;;;;;;;;;1875207;28;9079;-65
2023/03/08 05:23:54;;;;;;;;;;;;;;;;;;1874321;28;7006;-65
2023/03/08 05:24:52;;;;;;;;;;;;;;;;;;1875412;28;7032;-65
2023/03/08 05:25:58;;;;;;;;;;;;;;;;;;1875736;28;7093;-65
2023/03/08 05:26:55;;;;;;;;;;;;;;;;;;1875686;28;7010;-64
2023/03/08 05:27:52;;;;;;;;;;;;;;;;;;1875781;28;7070;-65
2023/03/08 05:28:50;;;;;;;;;;;;;;;;;;1874717;28;7121;-66
2023/03/08 05:29:47;;;;;;;;;;;;;;;;;;1875606;28;7043;-65
2023/03/08 05:30:44;;;;;;;;;;;;;;;;;;1875480;28;7014;-65
2023/03/08 05:31:44;;;;;;;;;;;;;;;;;;1874377;28;7109;-64
2023/03/08 05:32:41;;;;;;;;;;;;;;;;;;1875458;28;7109;-65
2023/03/08 05:33:40;;;;;;;;;;;;;;;;;;1875186;28;8209;-65
2023/03/08 05:34:37;;;;;;;;;;;;;;;;;;1875641;28;7010;-65
2023/03/08 05:35:34;;;;;;;;;;;;;;;;;;1875344;28;7006;-65
2023/03/08 05:36:32;;;;;;;;;;;;;;;;;;1875186;28;7013;-65
2023/03/08 05:37:29;;;;;;;;;;;;;;;;;;1875463;28;8054;-65
2023/03/08 05:38:27;;;;;;;;;;;;;;;;;;1874289;28;7121;-65
2023/03/08 05:39:24;;;;;;;;;;;;;;;;;;1867370;29;8178;-65
2023/03/08 05:40:21;;;;;;;;;;;;;;;;;;1867308;29;8009;-65
2023/03/08 05:41:19;;;;;;;;;;;;;;;;;;1874412;28;7097;-65
2023/03/08 05:42:18;;;;;;;;;;;;;;;;;;1875704;28;7184;-65
2023/03/08 05:43:16;;;;;;;;;;;;;;;;;;1875647;28;7106;-66
2023/03/08 05:44:14;;;;;;;;;;;;;;;;;;1875705;28;7089;-65
2023/03/08 05:45:11;;;;;;;;;;;;;;;;;;1875273;28;7085;-65
2023/03/08 05:46:13;;;;;;;;;;;;;;;;;;1875461;28;7009;-65
2023/03/08 05:47:11;;;;;;;;;;;;;;;;;;1875320;28;7421;-65
2023/03/08 05:48:08;;;;;;;;;;;;;;;;;;1875768;28;8010;-65
2023/03/08 05:49:06;;;;;;;;;;;;;;;;;;1873902;28;8049;-65
2023/03/08 05:50:03;;;;;;;;;;;;;;;;;;1876478;28;7006;-65
2023/03/08 05:51:04;;;;;;;;;;;;;;;;;;1875832;28;7027;-65
2023/03/08 05:52:02;;;;;;;;;;;;;;;;;;1874940;28;7113;-65
2023/03/08 05:53:01;;;;;;;;;;;;;;;;;;1875028;28;7211;-64
2023/03/08 05:53:58;;;;;;;;;;;;;;;;;;1874900;28;7097;-65
2023/03/08 05:54:56;;;;;;;;;;;;;;;;;;1875540;28;7088;-65
2023/03/08 05:55:55;;;;;;;;;;;;;;;;;;1874932;28;8090;-65
2023/03/08 05:56:52;;;;;;;;;;;;;;;;;;1875753;28;7078;-65
2023/03/08 05:57:49;;;;;;;;;;;;;;;;;;1875142;28;8021;-65
2023/03/08 05:58:47;;;;;;;;;;;;;;;;;;1875113;28;7093;-65
2023/03/08 05:59:44;;;;;;;;;;;;;;;;;;1875040;28;7035;-65
2023/03/08 06:00:42;;;;;;;;;;;;;;;;;;1875234;28;8001;-65
2023/03/08 06:01:39;;;;;;;;;;;;;;;;;;1875273;28;7113;-65
2023/03/08 06:02:37;;;;;;;;;;;;;;;;;;1874068;28;7166;-65
2023/03/08 06:03:34;;;;;;;;;;;;;;;;;;1874214;28;8021;-63
2023/03/08 06:04:31;;;;;;;;;;;;;;;;;;1874067;28;7035;-65
2023/03/08 06:05:29;;;;;;;;;;;;;;;;;;1875007;28;7006;-63
2023/03/08 06:06:27;;;;;;;;;;;;;;;;;;1875320;28;7124;-65
2023/03/08 06:07:24;;;;;;;;;;;;;;;;;;1875359;28;8024;-65
2023/03/08 06:08:22;;;;;;;;;;;;;;;;;;1874987;28;7006;-65
2023/03/08 06:09:19;;;;;;;;;;;;;;;;;;1875401;28;7093;-65
2023/03/08 06:10:16;;;;;;;;;;;;;;;;;;1875524;28;7318;-65
2023/03/08 06:11:14;;;;;;;;;;;;;;;;;;1875529;28;7006;-65
2023/03/08 06:12:11;;;;;;;;;;;;;;;;;;1875002;28;8017;-65
2023/03/08 06:13:08;;;;;;;;;;;;;;;;;;1875366;28;7005;-65
2023/03/08 06:14:06;;;;;;;;;;;;;;;;;;1874890;28;8125;-65
2023/03/08 06:15:03;;;;;;;;;;;;;;;;;;1875449;28;7209;-65
2023/03/08 06:16:02;;;;;;;;;;;;;;;;;;1875017;28;7057;-65
2023/03/08 06:16:59;;;;;;;;;;;;;;;;;;1875701;28;7014;-65
2023/03/08 06:17:57;;;;;;;;;;;;;;;;;;1875619;28;8088;-65
2023/03/08 06:18:54;;;;;;;;;;;;;;;;;;1875522;28;7010;-65
2023/03/08 06:19:51;;;;;;;;;;;;;;;;;;1874424;28;8089;-65
2023/03/08 06:20:58;;;;;;;;;;;;;;;;;;1875264;28;7143;-65
2023/03/08 06:21:55;;;;;;;;;;;;;;;;;;1875687;28;7205;-63
2023/03/08 06:22:53;;;;;;;;;;;;;;;;;;1873690;28;7101;-65
2023/03/08 06:23:50;;;;;;;;;;;;;;;;;;1868180;29;7434;-65
2023/03/08 06:24:48;;;;;;;;;;;;;;;;;;1868829;28;7096;-65
2023/03/08 06:25:46;;;;;;;;;;;;;;;;;;1868413;29;7055;-65
2023/03/08 06:26:43;;;;;;;;;;;;;;;;;;1868115;29;7006;-65
2023/03/08 06:27:40;;;;;;;;;;;;;;;;;;1871406;28;8124;-63
2023/03/08 06:28:41;;;;;;;;;;;;;;;;;;1872876;28;7006;-65
2023/03/08 06:29:38;;;;;;;;;;;;;;;;;;1874939;28;7006;-65
2023/03/08 06:30:36;;;;;;;;;;;;;;;;;;1871689;28;7301;-65
2023/03/08 06:31:33;;;;;;;;;;;;;;;;;;1875028;28;8068;-65
2023/03/08 06:32:31;;;;;;;;;;;;;;;;;;1875246;28;7018;-65
2023/03/08 06:33:29;;;;;;;;;;;;;;;;;;1873156;28;7009;-65
2023/03/08 06:34:27;;;;;;;;;;;;;;;;;;1875027;28;7965;-65
2023/03/08 06:35:24;;;;;;;;;;;;;;;;;;1874858;28;7350;-65
2023/03/08 06:36:22;;;;;;;;;;;;;;;;;;1867531;28;8095;-65
2023/03/08 06:37:19;;;;;;;;;;;;;;;;;;1867300;29;7058;-65
2023/03/08 06:38:16;;;;;;;;;;;;;;;;;;1867898;29;7010;-65
2023/03/08 06:39:14;;;;;;;;;;;;;;;;;;1867846;29;7097;-65
2023/03/08 06:40:12;;;;;;;;;;;;;;;;;;1867766;29;7010;-65
2023/03/08 06:41:11;;;;;;;;;;;;;;;;;;1867837;29;7029;-65
2023/03/08 06:42:08;;;;;;;;;;;;;;;;;;1867335;29;7202;-65
2023/03/08 06:43:05;;;;;;;;;;;;;;;;;;1867880;29;7074;-65
2023/03/08 06:44:03;;;;;;;;;;;;;;;;;;1867463;29;7301;-65
2023/03/08 06:45:00;;;;;;;;;;;;;;;;;;1867640;29;7156;-64
2023/03/08 06:45:57;;;;;;;;;;;;;;;;;;1872795;28;8102;-65
2023/03/08 06:46:57;;;;;;;;;;;;;;;;;;1874988;28;7002;-65
2023/03/08 06:47:54;;;;;;;;;;;;;;;;;;1868538;29;7041;-65
2023/03/08 06:48:53;;;;;;;;;;;;;;;;;;1867535;29;7101;-65
2023/03/08 06:49:52;;;;;;;;;;;;;;;;;;1869103;28;7508;-65
2023/03/08 06:50:50;;;;;;;;;;;;;;;;;;1868916;28;7104;-65
2023/03/08 06:51:47;;;;;;;;;;;;;;;;;;1874466;28;7022;-65
2023/03/08 06:52:45;;;;;;;;;;;;;;;;;;1867824;29;7125;-65
2023/03/08 06:53:43;;;;;;;;;;;;;;;;;;1872982;28;7089;-65
2023/03/08 06:54:40;;;;;;;;;;;;;;;;;;1872240;28;7002;-65
2023/03/08 06:55:39;;;;;;;;;;;;;;;;;;1869318;29;7204;-65
2023/03/08 06:56:36;;;;;;;;;;;;;;;;;;1868833;28;8037;-65
2023/03/08 06:57:33;;;;;;;;;;;;;;;;;;1868659;29;7006;-65
2023/03/08 06:58:32;;;;;;;;;;;;;;;;;;1867856;29;7002;-65